createdAt,value
2023-03-12T00:01:15.727Z,54.30
2023-03-12T00:03:44.230Z,54.28
2023-03-12T00:06:12.479Z,54.23
2023-03-12T00:08:41.809Z,54.37
2023-03-12T00:11:12.041Z,54.49
2023-03-12T00:13:40.987Z,54.58
2023-03-12T00:16:11.928Z,54.66
2023-03-12T00:18:40.391Z,54.70
2023-03-12T00:21:09.456Z,54.86
2023-03-12T00:23:38.201Z,54.53
2023-03-12T00:26:09.395Z,54.69
2023-03-12T00:28:38.375Z,54.41
2023-03-12T00:31:15.692Z,54.40
2023-03-12T00:33:44.657Z,54.46
2023-03-12T00:36:13.389Z,54.51
2023-03-12T00:38:41.545Z,54.28
2023-03-12T00:41:11.496Z,54.27
2023-03-12T00:43:39.892Z,54.14
2023-03-12T00:46:07.944Z,54.25
2023-03-12T00:48:36.133Z,54.07
2023-03-12T00:51:04.398Z,54.20
2023-03-12T00:53:32.440Z,54.12
2023-03-12T00:56:00.815Z,54.35
2023-03-12T00:58:30.492Z,54.12
2023-03-12T01:00:58.713Z,54.08
2023-03-12T01:03:27.344Z,54.39
2023-03-12T01:05:55.591Z,54.27
2023-03-12T01:08:25.362Z,54.28
2023-03-12T01:10:54.331Z,54.34
2023-03-12T01:13:23.507Z,54.32
2023-03-12T01:15:52.986Z,54.35
2023-03-12T01:18:21.246Z,54.39
2023-03-12T01:20:49.395Z,54.40
2023-03-12T01:23:17.996Z,54.40
2023-03-12T01:25:47.493Z,54.43
2023-03-12T01:28:15.481Z,54.34
2023-03-12T01:30:43.530Z,54.46
2023-03-12T01:33:13.413Z,54.24
2023-03-12T01:35:42.570Z,54.14
2023-03-12T01:38:14.881Z,54.26
2023-03-12T01:40:44.925Z,54.20
2023-03-12T01:43:27.704Z,54.16
2023-03-12T01:46:24.111Z,54.37
2023-03-12T01:48:58.092Z,54.57
2023-03-12T01:51:29.245Z,54.36
2023-03-12T01:54:03.310Z,54.35
2023-03-12T01:56:36.056Z,54.43
2023-03-12T01:59:11.608Z,54.43
2023-03-12T02:01:42.063Z,54.22
2023-03-12T02:04:13.245Z,54.23
2023-03-12T02:06:49.671Z,54.23
2023-03-12T02:09:20.524Z,54.17
2023-03-12T02:11:50.448Z,54.21
2023-03-12T02:14:20.577Z,54.27
2023-03-12T02:16:49.128Z,54.38
2023-03-12T02:19:24.633Z,54.44
2023-03-12T02:21:53.430Z,54.57
2023-03-12T02:24:29.560Z,54.31
2023-03-12T02:27:00.686Z,54.42
2023-03-12T02:29:33.051Z,54.43
2023-03-12T02:32:06.965Z,54.35
2023-03-12T02:34:36.039Z,54.39
2023-03-12T02:37:04.692Z,54.41
2023-03-12T02:39:32.735Z,54.63
2023-03-12T02:42:02.293Z,54.67
2023-03-12T02:44:33.360Z,54.81
2023-03-12T02:47:02.931Z,54.75
2023-03-12T02:49:33.588Z,54.81
2023-03-12T02:52:02.389Z,54.60
2023-03-12T02:54:31.476Z,54.75
2023-03-12T02:57:00.184Z,54.61
2023-03-12T02:59:30.720Z,54.63
2023-03-12T03:02:01.699Z,54.67
2023-03-12T03:04:31.380Z,54.62
2023-03-12T03:06:59.565Z,54.73
2023-03-12T03:09:27.978Z,54.92
2023-03-12T03:11:56.284Z,54.90
2023-03-12T03:14:24.836Z,55.02
2023-03-12T03:16:54.653Z,54.79
2023-03-12T03:19:24.117Z,54.87
2023-03-12T03:21:52.356Z,55.04
2023-03-12T03:24:21.081Z,54.98
2023-03-12T03:26:49.507Z,55.19
2023-03-12T03:29:18.056Z,55.35
2023-03-12T03:31:46.164Z,55.31
2023-03-12T03:34:16.259Z,55.40
2023-03-12T03:36:44.340Z,55.21
2023-03-12T03:39:12.671Z,55.38
2023-03-12T03:41:40.967Z,55.49
2023-03-12T03:44:09.046Z,55.34
2023-03-12T03:46:37.387Z,55.23
2023-03-12T03:49:06.844Z,55.18
2023-03-12T03:51:36.460Z,55.25
2023-03-12T03:54:05.415Z,55.35
2023-03-12T03:56:33.630Z,55.22
2023-03-12T03:59:03.066Z,55.20
2023-03-12T04:01:32.254Z,55.25
2023-03-12T04:04:01.583Z,55.31
2023-03-12T04:06:30.566Z,55.28
2023-03-12T04:09:01.208Z,55.17
2023-03-12T04:11:30.317Z,55.02
2023-03-12T04:13:59.252Z,55.04
2023-03-12T04:16:28.005Z,55.01
2023-03-12T04:18:56.429Z,55.12
2023-03-12T04:21:24.708Z,55.19
2023-03-12T04:23:53.315Z,55.12
2023-03-12T04:26:24.563Z,55.09
2023-03-12T04:28:52.975Z,54.92
2023-03-12T04:31:21.168Z,54.92
2023-03-12T04:33:50.325Z,54.91
2023-03-12T04:36:18.629Z,54.85
2023-03-12T04:38:47.158Z,54.81
2023-03-12T04:41:17.273Z,54.89
2023-03-12T04:43:47.808Z,54.94
2023-03-12T04:46:16.606Z,54.83
2023-03-12T04:48:44.870Z,54.85
2023-03-12T04:51:13.981Z,54.89
2023-03-12T04:53:42.456Z,54.90
2023-03-12T04:56:11.000Z,55.07
2023-03-12T04:58:39.182Z,54.96
2023-03-12T05:01:08.873Z,54.75
2023-03-12T05:03:38.861Z,54.79
2023-03-12T05:06:07.294Z,54.79
2023-03-12T05:08:36.117Z,54.84
2023-03-12T05:11:04.298Z,54.80
2023-03-12T05:13:32.316Z,54.56
2023-03-12T05:16:00.840Z,54.53
2023-03-12T05:18:30.676Z,54.54
2023-03-12T05:21:00.298Z,54.62
2023-03-12T05:23:28.939Z,54.73
2023-03-12T05:25:58.332Z,54.66
2023-03-12T05:28:28.586Z,54.61
2023-03-12T05:30:59.198Z,54.62
2023-03-12T05:33:28.636Z,54.58
2023-03-12T05:35:58.549Z,54.52
2023-03-12T05:38:27.130Z,54.49
2023-03-12T05:40:57.449Z,54.46
2023-03-12T05:43:26.876Z,54.81
2023-03-12T05:46:00.022Z,54.98
2023-03-12T05:48:28.595Z,54.86
2023-03-12T05:50:59.118Z,54.94
2023-03-12T05:53:27.718Z,55.04
2023-03-12T05:55:55.659Z,55.10
2023-03-12T05:58:24.024Z,55.01
2023-03-12T06:00:52.518Z,55.01
2023-03-12T06:03:20.788Z,55.09
2023-03-12T06:05:48.932Z,55.21
2023-03-12T06:08:20.434Z,55.30
2023-03-12T06:10:51.259Z,55.45
2023-03-12T06:13:19.513Z,55.45
2023-03-12T06:15:47.777Z,55.24
2023-03-12T06:18:17.240Z,55.33
2023-03-12T06:20:46.654Z,55.38
2023-03-12T06:23:14.791Z,55.45
2023-03-12T06:25:47.021Z,55.51
2023-03-12T06:28:15.027Z,55.45
2023-03-12T06:30:46.354Z,55.40
2023-03-12T06:33:14.394Z,55.28
2023-03-12T06:35:42.661Z,55.39
2023-03-12T06:38:11.331Z,55.26
2023-03-12T06:40:39.525Z,55.45
2023-03-12T06:43:12.234Z,55.32
2023-03-12T06:45:40.592Z,55.30
2023-03-12T06:48:08.786Z,55.27
2023-03-12T06:50:37.896Z,55.31
2023-03-12T06:53:06.251Z,55.26
2023-03-12T06:55:34.303Z,55.10
2023-03-12T06:58:03.994Z,55.09
2023-03-12T07:00:34.832Z,55.04
2023-03-12T07:03:02.921Z,54.84
2023-03-12T07:05:31.206Z,55.03
2023-03-12T07:07:59.723Z,54.80
2023-03-12T07:10:29.528Z,54.75
2023-03-12T07:12:58.544Z,54.77
2023-03-12T07:15:26.951Z,54.63
2023-03-12T07:17:56.923Z,54.66
2023-03-12T07:20:25.044Z,54.65
2023-03-12T07:22:53.655Z,54.56
2023-03-12T07:25:21.875Z,54.54
2023-03-12T07:27:50.630Z,54.72
2023-03-12T07:30:19.727Z,54.69
2023-03-12T07:32:47.850Z,54.51
2023-03-12T07:35:17.458Z,54.50
2023-03-12T07:37:45.990Z,54.33
2023-03-12T07:40:14.612Z,54.18
2023-03-12T07:42:45.430Z,54.11
2023-03-12T07:45:14.055Z,54.18
2023-03-12T07:47:42.286Z,54.25
2023-03-12T07:50:11.742Z,54.07
2023-03-12T07:52:41.389Z,53.78
2023-03-12T07:55:11.228Z,53.74
2023-03-12T07:57:39.988Z,53.67
2023-03-12T08:00:10.467Z,53.57
2023-03-12T08:02:40.080Z,53.75
2023-03-12T08:05:09.017Z,53.56
2023-03-12T08:07:37.320Z,53.79
2023-03-12T08:10:09.748Z,53.95
2023-03-12T08:12:38.449Z,53.75
2023-03-12T08:15:08.383Z,53.44
2023-03-12T08:17:36.576Z,53.20
2023-03-12T08:20:05.871Z,53.10
2023-03-12T08:22:33.760Z,53.03
2023-03-12T08:25:01.641Z,52.92
2023-03-12T08:27:31.471Z,52.88
2023-03-12T08:29:59.342Z,52.74
2023-03-12T08:32:27.639Z,53.00
2023-03-12T08:34:55.942Z,52.91
2023-03-12T08:37:24.135Z,52.86
2023-03-12T08:39:52.064Z,52.95
2023-03-12T08:42:20.299Z,53.19
2023-03-12T08:44:49.597Z,52.73
2023-03-12T08:47:17.601Z,52.31
2023-03-12T08:49:46.058Z,52.07
2023-03-12T08:52:14.014Z,52.36
2023-03-12T08:54:42.030Z,52.31
2023-03-12T08:57:10.667Z,52.80
2023-03-12T08:59:38.902Z,51.93
2023-03-12T09:02:08.474Z,52.14
2023-03-12T09:04:36.676Z,52.13
2023-03-12T09:07:04.784Z,52.41
2023-03-12T09:09:33.941Z,52.01
2023-03-12T09:12:02.165Z,51.87
2023-03-12T09:17:20.207Z,52.39
2023-03-12T09:19:48.376Z,51.25
2023-03-12T09:22:17.253Z,52.08
2023-03-12T09:24:45.952Z,52.00
2023-03-12T09:27:13.824Z,52.23
2023-03-12T09:29:58.722Z,52.21
2023-03-12T09:32:29.715Z,52.09
2023-03-12T09:34:57.713Z,51.93
2023-03-12T09:37:26.249Z,51.93
2023-03-12T09:39:55.185Z,51.71
2023-03-12T09:42:26.287Z,51.52
2023-03-12T09:44:59.155Z,51.33
2023-03-12T09:47:31.627Z,51.04
2023-03-12T09:50:06.470Z,50.98
2023-03-12T09:52:40.502Z,51.16
2023-03-12T09:55:14.957Z,50.54
2023-03-12T09:57:44.355Z,50.64
2023-03-12T10:00:15.524Z,50.90
2023-03-12T10:03:06.666Z,50.69
2023-03-12T10:05:39.089Z,49.98
2023-03-12T10:08:24.729Z,50.08
2023-03-12T10:10:56.077Z,49.94
2023-03-12T10:13:42.053Z,50.25
2023-03-12T10:16:22.069Z,48.24
2023-03-12T10:19:06.154Z,49.31
2023-03-12T10:21:40.369Z,49.15
2023-03-12T10:24:25.061Z,49.10
2023-03-12T10:26:56.732Z,49.87
2023-03-12T10:29:29.600Z,49.89
2023-03-12T10:32:01.792Z,49.41
2023-03-12T10:34:37.580Z,48.08
2023-03-12T10:37:15.094Z,48.69
2023-03-12T10:39:43.508Z,49.24
2023-03-12T10:42:17.151Z,49.56
2023-03-12T10:44:48.153Z,48.95
2023-03-12T10:47:29.057Z,49.32
2023-03-12T10:50:14.013Z,46.61
2023-03-12T10:52:42.921Z,44.82
2023-03-12T10:55:13.859Z,48.56
2023-03-12T10:57:43.073Z,47.86
2023-03-12T11:00:20.829Z,48.19
2023-03-12T11:02:59.170Z,45.58
2023-03-12T11:05:31.351Z,45.83
2023-03-12T11:08:01.990Z,48.30
2023-03-12T11:10:43.194Z,47.88
2023-03-12T11:13:27.831Z,44.84
2023-03-12T11:15:58.193Z,43.56
2023-03-12T11:18:29.697Z,48.05
2023-03-12T11:21:14.333Z,47.10
2023-03-12T11:23:44.168Z,42.59
2023-03-12T11:26:16.979Z,47.31
2023-03-12T11:28:48.133Z,46.37
2023-03-12T11:31:22.770Z,47.17
2023-03-12T11:33:52.867Z,42.36
2023-03-12T11:36:36.413Z,46.20
2023-03-12T11:39:15.148Z,42.35
2023-03-12T11:42:01.002Z,44.85
2023-03-12T11:44:38.729Z,44.64
2023-03-12T11:47:20.528Z,45.74
2023-03-12T11:50:04.978Z,45.92
2023-03-12T11:52:48.031Z,43.54
2023-03-12T11:55:23.375Z,44.55
2023-03-12T11:58:09.158Z,45.25
2023-03-12T12:00:47.952Z,44.52
2023-03-12T12:03:40.627Z,45.15
2023-03-12T12:06:14.015Z,43.40
2023-03-12T12:08:57.476Z,46.60
2023-03-12T12:11:35.453Z,44.54
2023-03-12T12:14:14.122Z,46.42
2023-03-12T12:16:59.563Z,43.82
2023-03-12T12:19:38.711Z,44.13
2023-03-12T12:22:26.479Z,44.00
2023-03-12T12:25:17.717Z,43.48
2023-03-12T12:27:54.449Z,42.82
2023-03-12T12:30:30.506Z,45.03
2023-03-12T12:33:15.558Z,44.55
2023-03-12T12:35:44.362Z,43.17
2023-03-12T12:38:16.031Z,46.43
2023-03-12T12:40:50.236Z,44.84
2023-03-12T12:43:28.100Z,46.05
2023-03-12T12:46:00.363Z,45.11
2023-03-12T12:48:34.966Z,46.48
2023-03-12T12:51:08.294Z,45.21
2023-03-12T12:53:43.216Z,46.25
2023-03-12T12:56:20.421Z,44.78
2023-03-12T12:59:10.394Z,45.09
2023-03-12T13:01:39.853Z,42.93
2023-03-12T13:04:13.172Z,46.37
2023-03-12T13:06:59.661Z,44.54
2023-03-12T13:09:43.396Z,43.34
2023-03-12T13:12:21.661Z,44.25
2023-03-12T13:14:50.757Z,45.34
2023-03-12T13:17:33.391Z,45.57
2023-03-12T13:20:17.681Z,45.84
2023-03-12T13:23:10.620Z,43.51
2023-03-12T13:25:55.080Z,44.77
2023-03-12T13:28:42.019Z,43.41
2023-03-12T13:31:37.854Z,44.47
2023-03-12T13:34:46.505Z,43.40
2023-03-12T13:37:57.804Z,43.28
2023-03-12T13:40:36.230Z,43.64
2023-03-12T13:43:12.490Z,44.34
2023-03-12T13:46:01.544Z,46.58
2023-03-12T13:48:29.796Z,45.54
2023-03-12T13:51:00.708Z,47.60
2023-03-12T13:53:34.616Z,47.61
2023-03-12T13:56:06.736Z,47.44
2023-03-12T13:58:42.569Z,47.72
2023-03-12T14:01:18.620Z,47.10
2023-03-12T14:03:54.323Z,47.89
2023-03-12T14:06:24.715Z,48.32
2023-03-12T14:09:05.103Z,48.55
2023-03-12T14:11:42.260Z,48.48
2023-03-12T14:14:49.949Z,48.49
2023-03-12T14:17:21.317Z,47.73
2023-03-12T14:19:56.388Z,48.23
2023-03-12T14:22:25.566Z,48.88
2023-03-12T14:25:00.501Z,48.90
2023-03-12T14:27:31.702Z,48.91
2023-03-12T14:30:08.385Z,49.20
2023-03-12T14:32:41.383Z,49.25
2023-03-12T14:35:20.380Z,49.53
2023-03-12T14:37:55.733Z,49.23
2023-03-12T14:40:27.279Z,49.67
2023-03-12T14:42:56.655Z,50.07
2023-03-12T14:45:25.921Z,50.19
2023-03-12T14:47:58.231Z,50.25
2023-03-12T14:50:28.747Z,50.39
2023-03-12T14:53:11.171Z,50.30
2023-03-12T14:55:39.409Z,50.30
2023-03-12T14:58:16.357Z,50.56
2023-03-12T15:00:46.881Z,50.83
2023-03-12T15:03:17.823Z,50.73
2023-03-12T15:05:47.915Z,50.87
2023-03-12T15:08:18.011Z,50.94
2023-03-12T15:10:49.743Z,50.90
2023-03-12T15:13:20.603Z,51.02
2023-03-12T15:15:51.188Z,51.03
2023-03-12T15:18:25.486Z,51.04
2023-03-12T15:20:55.448Z,51.14
2023-03-12T15:23:24.809Z,51.03
2023-03-12T15:26:11.245Z,51.12
2023-03-12T15:28:39.906Z,51.27
2023-03-12T15:31:11.832Z,51.29
2023-03-12T15:33:42.635Z,51.34
2023-03-12T15:36:24.880Z,51.33
2023-03-12T15:38:56.013Z,51.37
2023-03-12T15:41:27.771Z,51.53
2023-03-12T15:43:58.412Z,51.33
2023-03-12T15:46:28.163Z,51.41
2023-03-12T15:49:00.381Z,51.36
2023-03-12T15:51:31.700Z,51.51
2023-03-12T15:54:01.710Z,51.41
2023-03-12T15:56:32.214Z,51.37
2023-03-12T15:59:05.731Z,51.32
2023-03-12T16:01:46.086Z,51.43
2023-03-12T16:04:15.760Z,51.75
2023-03-12T16:06:47.001Z,51.76
2023-03-12T16:09:19.927Z,51.90
2023-03-12T16:11:48.811Z,51.98
2023-03-12T16:14:20.018Z,52.04
2023-03-12T16:16:48.336Z,52.18
2023-03-12T16:19:20.297Z,52.38
2023-03-12T16:21:49.279Z,52.30
2023-03-12T16:24:17.969Z,52.39
2023-03-12T16:26:50.084Z,52.52
2023-03-12T16:29:20.213Z,52.76
2023-03-12T16:31:52.139Z,52.91
2023-03-12T16:34:21.875Z,52.94
2023-03-12T16:36:49.850Z,53.02
2023-03-12T16:39:18.994Z,53.75
2023-03-12T16:41:47.667Z,53.63
2023-03-12T16:44:21.223Z,53.65
2023-03-12T16:46:50.899Z,53.93
2023-03-12T16:49:21.274Z,55.35
2023-03-12T16:51:51.258Z,54.62
2023-03-12T16:54:19.548Z,54.11
2023-03-12T16:56:51.012Z,54.24
2023-03-12T16:59:26.597Z,55.28
2023-03-12T17:01:55.398Z,55.09
2023-03-12T17:04:24.055Z,54.58
2023-03-12T17:06:53.383Z,54.47
2023-03-12T17:09:21.370Z,54.88
2023-03-12T17:11:52.595Z,54.57
2023-03-12T17:14:23.193Z,54.90
2023-03-12T17:16:51.852Z,54.56
2023-03-12T17:19:19.861Z,54.89
2023-03-12T17:21:48.840Z,54.84
2023-03-12T17:24:18.628Z,54.80
2023-03-12T17:26:47.668Z,54.83
2023-03-12T17:29:15.669Z,54.98
2023-03-12T17:31:43.855Z,55.23
2023-03-12T17:34:11.748Z,55.20
2023-03-12T17:36:40.336Z,54.71
2023-03-12T17:39:08.619Z,54.61
2023-03-12T17:41:37.865Z,54.60
2023-03-12T17:44:07.124Z,54.80
2023-03-12T17:46:39.153Z,55.39
2023-03-12T17:49:08.931Z,55.58
2023-03-12T17:51:37.123Z,55.95
2023-03-12T17:54:05.313Z,55.51
2023-03-12T17:56:33.257Z,56.27
2023-03-12T17:59:02.861Z,55.68
2023-03-12T18:01:30.780Z,56.40
2023-03-12T18:03:59.082Z,56.65
2023-03-12T18:06:27.057Z,58.38
2023-03-12T18:08:54.974Z,57.79
2023-03-12T18:11:23.220Z,57.76
2023-03-12T18:13:51.311Z,57.86
2023-03-12T18:16:20.809Z,57.03
2023-03-12T18:18:51.511Z,56.92
2023-03-12T18:21:20.349Z,57.99
2023-03-12T18:23:48.563Z,56.80
2023-03-12T18:26:16.638Z,56.79
2023-03-12T18:28:44.563Z,57.81
2023-03-12T18:31:12.859Z,56.84
2023-03-12T18:33:44.701Z,57.09
2023-03-12T18:36:12.987Z,58.22
2023-03-12T18:38:41.053Z,57.79
2023-03-12T18:41:12.365Z,58.18
2023-03-12T18:43:41.848Z,57.76
2023-03-12T18:46:11.423Z,57.04
2023-03-12T18:48:40.881Z,57.64
2023-03-12T18:51:11.317Z,57.38
2023-03-12T18:53:41.648Z,56.87
2023-03-12T18:56:09.902Z,57.70
2023-03-12T18:58:37.935Z,57.36
2023-03-12T19:01:06.175Z,57.79
2023-03-12T19:03:36.472Z,57.38
2023-03-12T19:06:06.687Z,57.01
2023-03-12T19:08:38.050Z,57.13
2023-03-12T19:11:07.038Z,57.26
2023-03-12T19:13:35.633Z,57.47
2023-03-12T19:16:08.315Z,57.24
2023-03-12T19:18:37.955Z,57.36
2023-03-12T19:21:08.365Z,57.02
2023-03-12T19:23:38.094Z,57.23
2023-03-12T19:26:07.598Z,56.63
2023-03-12T19:28:36.011Z,56.77
2023-03-12T19:31:06.493Z,57.07
2023-03-12T19:33:34.635Z,56.84
2023-03-12T19:36:05.191Z,57.17
2023-03-12T19:38:33.785Z,57.00
2023-03-12T19:41:03.069Z,57.54
2023-03-12T19:43:31.356Z,56.57
2023-03-12T19:45:59.721Z,56.58
2023-03-12T19:48:27.834Z,56.72
2023-03-12T19:50:56.042Z,56.69
2023-03-12T19:53:24.806Z,56.44
2023-03-12T19:55:53.102Z,56.54
2023-03-12T19:58:22.645Z,56.60
2023-03-12T20:00:50.828Z,56.95
2023-03-12T20:03:20.700Z,56.79
2023-03-12T20:05:50.469Z,58.40
2023-03-12T20:08:20.845Z,57.12
2023-03-12T20:10:49.510Z,57.20
2023-03-12T20:13:18.405Z,57.29
2023-03-12T20:15:48.511Z,56.81
2023-03-12T20:18:17.228Z,56.68
2023-03-12T20:20:45.146Z,56.98
2023-03-12T20:23:13.406Z,57.44
2023-03-12T20:25:42.199Z,56.77
2023-03-12T20:28:11.308Z,56.96
2023-03-12T20:30:41.291Z,56.69
2023-03-12T20:33:10.688Z,56.57
2023-03-12T20:35:39.697Z,56.50
2023-03-12T20:38:07.979Z,56.60
2023-03-12T20:40:36.127Z,56.75
2023-03-12T20:43:04.879Z,56.70
2023-03-12T20:45:34.542Z,56.68
2023-03-12T20:48:03.206Z,56.68
2023-03-12T20:50:32.572Z,56.92
2023-03-12T20:53:00.756Z,56.61
2023-03-12T20:55:28.894Z,56.78
2023-03-12T20:57:56.933Z,56.58
2023-03-12T21:00:25.327Z,56.62
2023-03-12T21:02:53.461Z,56.76
2023-03-12T21:05:23.806Z,56.58
2023-03-12T21:07:58.190Z,56.95
2023-03-12T21:10:26.485Z,56.82
2023-03-12T21:12:54.680Z,56.74
2023-03-12T21:15:22.837Z,56.93
2023-03-12T21:17:50.822Z,57.00
2023-03-12T21:20:19.553Z,57.12
2023-03-12T21:22:47.613Z,56.99
2023-03-12T21:25:17.264Z,57.00
2023-03-12T21:27:51.020Z,57.11
2023-03-12T21:30:20.334Z,57.01
2023-03-12T21:32:48.954Z,56.97
2023-03-12T21:35:17.489Z,57.09
2023-03-12T21:37:45.417Z,56.90
2023-03-12T21:40:14.921Z,56.94
2023-03-12T21:42:44.561Z,57.13
2023-03-12T21:45:13.038Z,57.21
2023-03-12T21:47:42.162Z,57.05
2023-03-12T21:50:11.783Z,57.31
2023-03-12T21:52:42.939Z,57.04
2023-03-12T21:55:12.270Z,57.27
2023-03-12T21:57:40.243Z,57.13
2023-03-12T22:00:12.900Z,57.14
2023-03-12T22:02:41.921Z,57.21
2023-03-12T22:05:10.468Z,57.20
2023-03-12T22:07:38.761Z,57.35
2023-03-12T22:10:11.831Z,57.30
2023-03-12T22:12:42.448Z,57.17
2023-03-12T22:15:12.877Z,57.27
2023-03-12T22:17:40.952Z,57.29
2023-03-12T22:20:10.602Z,57.31
2023-03-12T22:22:38.880Z,57.06
2023-03-12T22:25:07.441Z,57.19
2023-03-12T22:27:35.487Z,57.33
2023-03-12T22:30:04.164Z,57.12
2023-03-12T22:32:33.680Z,57.19
2023-03-12T22:35:01.870Z,57.29
2023-03-12T22:37:30.076Z,57.30
2023-03-12T22:40:01.516Z,57.18
2023-03-12T22:42:29.726Z,57.18
2023-03-12T22:44:57.662Z,57.20
2023-03-12T22:47:25.852Z,57.46
2023-03-12T22:49:58.463Z,57.46
2023-03-12T22:52:26.671Z,57.47
2023-03-12T22:54:54.903Z,57.53
2023-03-12T22:57:22.873Z,57.69
2023-03-12T22:59:50.757Z,57.41
2023-03-12T23:02:19.368Z,57.70
2023-03-12T23:04:47.446Z,57.55
2023-03-12T23:07:16.876Z,57.64
2023-03-12T23:09:45.815Z,57.56
2023-03-12T23:12:14.085Z,57.80
2023-03-12T23:14:42.134Z,57.59
2023-03-12T23:17:10.385Z,57.53
2023-03-12T23:19:38.528Z,57.85
2023-03-12T23:22:07.803Z,57.30
2023-03-12T23:24:37.570Z,57.22
2023-03-12T23:27:05.949Z,57.28
2023-03-12T23:29:35.701Z,57.17
2023-03-12T23:32:04.609Z,57.29
2023-03-12T23:34:34.609Z,57.47
2023-03-12T23:37:02.752Z,57.35
2023-03-12T23:39:32.798Z,57.38
2023-03-12T23:42:04.801Z,57.50
2023-03-12T23:44:33.331Z,57.57
2023-03-12T23:47:01.447Z,57.67
2023-03-12T23:49:29.367Z,57.60
2023-03-12T23:51:57.555Z,57.60
2023-03-12T23:54:25.552Z,57.75
2023-03-12T23:56:53.618Z,57.56
2023-03-12T23:59:23.255Z,57.85
